sensor_id;sensor_type;location;lat;lon;timestamp;P1;durP1;ratioP1;P2;durP2;ratioP2
13112;SDS011;6622;49.752;6.100;2022-10-31T00:00:13;5.13;;;3.43;;
13112;SDS011;6622;49.752;6.100;2022-10-31T00:02:40;7.47;;;4.45;;
13112;SDS011;6622;49.752;6.100;2022-10-31T00:05:07;6.27;;;3.30;;
13112;SDS011;6622;49.752;6.100;2022-10-31T00:07:33;9.05;;;4.55;;
13112;SDS011;6622;49.752;6.100;2022-10-31T00:10:00;7.83;;;2.77;;
13112;SDS011;6622;49.752;6.100;2022-10-31T00:12:26;2.93;;;2.50;;
13112;SDS011;6622;49.752;6.100;2022-10-31T00:14:53;5.13;;;2.87;;
13112;SDS011;6622;49.752;6.100;2022-10-31T00:17:20;5.20;;;2.77;;
13112;SDS011;6622;49.752;6.100;2022-10-31T00:19:47;6.13;;;3.13;;
13112;SDS011;6622;49.752;6.100;2022-10-31T00:22:14;4.77;;;2.70;;
13112;SDS011;6622;49.752;6.100;2022-10-31T00:24:41;8.67;;;3.53;;
13112;SDS011;6622;49.752;6.100;2022-10-31T00:27:08;5.37;;;2.77;;
13112;SDS011;6622;49.752;6.100;2022-10-31T00:29:34;4.63;;;2.80;;
13112;SDS011;6622;49.752;6.100;2022-10-31T00:32:01;4.00;;;2.70;;
13112;SDS011;6622;49.752;6.100;2022-10-31T00:34:28;12.37;;;7.10;;
13112;SDS011;6622;49.752;6.100;2022-10-31T00:36:55;14.40;;;6.87;;
13112;SDS011;6622;49.752;6.100;2022-10-31T00:39:22;10.20;;;5.50;;
13112;SDS011;6622;49.752;6.100;2022-10-31T00:41:49;10.53;;;5.43;;
13112;SDS011;6622;49.752;6.100;2022-10-31T00:44:16;9.73;;;5.23;;
13112;SDS011;6622;49.752;6.100;2022-10-31T00:46:42;8.33;;;4.57;;
13112;SDS011;6622;49.752;6.100;2022-10-31T00:49:09;6.67;;;3.90;;
13112;SDS011;6622;49.752;6.100;2022-10-31T00:51:36;6.57;;;3.63;;
13112;SDS011;6622;49.752;6.100;2022-10-31T00:54:02;5.60;;;3.83;;
13112;SDS011;6622;49.752;6.100;2022-10-31T00:56:29;10.57;;;3.80;;
13112;SDS011;6622;49.752;6.100;2022-10-31T00:58:58;5.80;;;3.03;;
13112;SDS011;6622;49.752;6.100;2022-10-31T01:01:25;3.27;;;2.70;;
13112;SDS011;6622;49.752;6.100;2022-10-31T01:03:52;7.17;;;3.27;;
13112;SDS011;6622;49.752;6.100;2022-10-31T01:06:18;7.57;;;3.90;;
13112;SDS011;6622;49.752;6.100;2022-10-31T04:23:20;5.70;;;2.83;;
13112;SDS011;6622;49.752;6.100;2022-10-31T04:25:46;4.27;;;2.80;;
13112;SDS011;6622;49.752;6.100;2022-10-31T04:28:13;4.67;;;2.57;;
13112;SDS011;6622;49.752;6.100;2022-10-31T04:30:40;7.30;;;3.10;;
13112;SDS011;6622;49.752;6.100;2022-10-31T04:33:07;8.63;;;3.60;;
13112;SDS011;6622;49.752;6.100;2022-10-31T04:35:33;8.13;;;3.00;;
13112;SDS011;6622;49.752;6.100;2022-10-31T04:38:00;6.23;;;3.30;;
13112;SDS011;6622;49.752;6.100;2022-10-31T04:40:27;7.27;;;2.90;;
13112;SDS011;6622;49.752;6.100;2022-10-31T04:42:53;5.63;;;2.80;;
13112;SDS011;6622;49.752;6.100;2022-10-31T04:45:20;4.50;;;3.07;;
13112;SDS011;6622;49.752;6.100;2022-10-31T04:47:47;7.80;;;3.97;;
13112;SDS011;6622;49.752;6.100;2022-10-31T04:50:13;6.97;;;3.57;;
13112;SDS011;6622;49.752;6.100;2022-10-31T04:52:43;6.20;;;2.70;;
13112;SDS011;6622;49.752;6.100;2022-10-31T04:55:10;4.07;;;2.37;;
13112;SDS011;6622;49.752;6.100;2022-10-31T04:57:40;5.77;;;2.87;;
13112;SDS011;6622;49.752;6.100;2022-10-31T05:00:06;5.90;;;3.60;;
13112;SDS011;6622;49.752;6.100;2022-10-31T05:02:33;8.20;;;3.30;;
13112;SDS011;6622;49.752;6.100;2022-10-31T05:04:59;6.17;;;3.70;;
13112;SDS011;6622;49.752;6.100;2022-10-31T05:07:26;8.30;;;2.90;;
13112;SDS011;6622;49.752;6.100;2022-10-31T05:09:53;9.47;;;3.00;;
13112;SDS011;6622;49.752;6.100;2022-10-31T05:12:19;7.83;;;2.87;;
13112;SDS011;6622;49.752;6.100;2022-10-31T05:14:46;7.93;;;3.40;;
13112;SDS011;6622;49.752;6.100;2022-10-31T05:17:12;5.75;;;3.95;;
13112;SDS011;6622;49.752;6.100;2022-10-31T05:19:39;6.03;;;3.07;;
13112;SDS011;6622;49.752;6.100;2022-10-31T05:22:06;8.63;;;4.10;;
13112;SDS011;6622;49.752;6.100;2022-10-31T05:24:32;5.80;;;3.50;;
13112;SDS011;6622;49.752;6.100;2022-10-31T05:26:59;9.00;;;4.23;;
13112;SDS011;6622;49.752;6.100;2022-10-31T05:29:26;6.97;;;3.60;;
13112;SDS011;6622;49.752;6.100;2022-10-31T05:31:52;6.07;;;3.27;;
13112;SDS011;6622;49.752;6.100;2022-10-31T05:34:19;6.87;;;2.87;;
13112;SDS011;6622;49.752;6.100;2022-10-31T05:36:45;5.43;;;2.83;;
13112;SDS011;6622;49.752;6.100;2022-10-31T05:39:12;5.30;;;2.67;;
13112;SDS011;6622;49.752;6.100;2022-10-31T05:41:39;4.47;;;2.73;;
13112;SDS011;6622;49.752;6.100;2022-10-31T05:44:05;5.07;;;2.80;;
13112;SDS011;6622;49.752;6.100;2022-10-31T05:46:32;3.70;;;2.60;;
13112;SDS011;6622;49.752;6.100;2022-10-31T05:48:59;12.07;;;3.30;;
13112;SDS011;6622;49.752;6.100;2022-10-31T05:51:25;5.50;;;2.63;;
13112;SDS011;6622;49.752;6.100;2022-10-31T05:53:53;6.07;;;2.87;;
13112;SDS011;6622;49.752;6.100;2022-10-31T05:56:19;4.17;;;2.50;;
13112;SDS011;6622;49.752;6.100;2022-10-31T05:58:46;4.13;;;2.80;;
13112;SDS011;6622;49.752;6.100;2022-10-31T06:01:13;6.60;;;3.03;;
13112;SDS011;6622;49.752;6.100;2022-10-31T06:03:40;6.33;;;2.80;;
13112;SDS011;6622;49.752;6.100;2022-10-31T06:06:06;8.10;;;2.60;;
13112;SDS011;6622;49.752;6.100;2022-10-31T06:08:34;6.13;;;3.30;;
13112;SDS011;6622;49.752;6.100;2022-10-31T06:11:00;5.53;;;3.23;;
13112;SDS011;6622;49.752;6.100;2022-10-31T06:13:27;5.13;;;3.13;;
13112;SDS011;6622;49.752;6.100;2022-10-31T06:15:54;10.40;;;3.33;;
13112;SDS011;6622;49.752;6.100;2022-10-31T06:18:21;9.77;;;2.93;;
13112;SDS011;6622;49.752;6.100;2022-10-31T06:20:48;4.00;;;2.70;;
13112;SDS011;6622;49.752;6.100;2022-10-31T06:23:14;11.57;;;3.67;;
13112;SDS011;6622;49.752;6.100;2022-10-31T06:25:41;8.27;;;2.70;;
13112;SDS011;6622;49.752;6.100;2022-10-31T06:28:08;3.80;;;2.63;;
13112;SDS011;6622;49.752;6.100;2022-10-31T06:30:34;5.73;;;2.90;;
13112;SDS011;6622;49.752;6.100;2022-10-31T06:33:02;5.03;;;2.80;;
13112;SDS011;6622;49.752;6.100;2022-10-31T06:35:27;6.47;;;3.37;;
13112;SDS011;6622;49.752;6.100;2022-10-31T06:37:54;6.73;;;3.30;;
13112;SDS011;6622;49.752;6.100;2022-10-31T06:40:21;5.03;;;3.10;;
13112;SDS011;6622;49.752;6.100;2022-10-31T06:42:55;3.90;;;3.13;;
13112;SDS011;6622;49.752;6.100;2022-10-31T06:45:14;8.15;;;4.53;;
13112;SDS011;6622;49.752;6.100;2022-10-31T06:47:41;7.43;;;3.43;;
13112;SDS011;6622;49.752;6.100;2022-10-31T06:50:07;4.63;;;3.33;;
13112;SDS011;6622;49.752;6.100;2022-10-31T06:52:34;8.63;;;4.00;;
13112;SDS011;6622;49.752;6.100;2022-10-31T06:55:00;6.73;;;3.50;;
13112;SDS011;6622;49.752;6.100;2022-10-31T06:57:27;8.80;;;3.60;;
13112;SDS011;6622;49.752;6.100;2022-10-31T06:59:54;9.37;;;4.03;;
13112;SDS011;6622;49.752;6.100;2022-10-31T07:02:20;4.37;;;3.40;;
13112;SDS011;6622;49.752;6.100;2022-10-31T07:04:47;5.20;;;3.33;;
13112;SDS011;6622;49.752;6.100;2022-10-31T07:07:14;4.97;;;3.13;;
13112;SDS011;6622;49.752;6.100;2022-10-31T07:09:40;5.47;;;3.10;;
13112;SDS011;6622;49.752;6.100;2022-10-31T07:12:07;6.93;;;3.17;;
13112;SDS011;6622;49.752;6.100;2022-10-31T07:14:34;7.63;;;3.17;;
13112;SDS011;6622;49.752;6.100;2022-10-31T07:17:01;4.17;;;2.97;;
13112;SDS011;6622;49.752;6.100;2022-10-31T07:19:28;6.47;;;3.33;;
13112;SDS011;6622;49.752;6.100;2022-10-31T07:21:55;6.30;;;3.47;;
13112;SDS011;6622;49.752;6.100;2022-10-31T07:24:21;4.97;;;2.73;;
13112;SDS011;6622;49.752;6.100;2022-10-31T07:26:48;4.43;;;2.83;;
13112;SDS011;6622;49.752;6.100;2022-10-31T07:29:15;4.93;;;2.30;;
13112;SDS011;6622;49.752;6.100;2022-10-31T07:31:41;4.97;;;2.80;;
13112;SDS011;6622;49.752;6.100;2022-10-31T07:34:08;5.57;;;3.63;;
13112;SDS011;6622;49.752;6.100;2022-10-31T07:36:35;6.15;;;4.03;;
13112;SDS011;6622;49.752;6.100;2022-10-31T07:39:01;6.23;;;3.30;;
13112;SDS011;6622;49.752;6.100;2022-10-31T07:41:28;4.50;;;2.90;;
13112;SDS011;6622;49.752;6.100;2022-10-31T07:43:54;6.47;;;3.63;;
13112;SDS011;6622;49.752;6.100;2022-10-31T07:46:21;3.97;;;2.70;;
13112;SDS011;6622;49.752;6.100;2022-10-31T07:48:48;4.40;;;2.87;;
13112;SDS011;6622;49.752;6.100;2022-10-31T07:51:14;5.30;;;2.93;;
13112;SDS011;6622;49.752;6.100;2022-10-31T07:53:41;8.63;;;2.93;;
13112;SDS011;6622;49.752;6.100;2022-10-31T07:56:08;5.93;;;3.57;;
13112;SDS011;6622;49.752;6.100;2022-10-31T07:58:34;4.67;;;2.60;;
13112;SDS011;6622;49.752;6.100;2022-10-31T08:01:01;6.33;;;2.93;;
13112;SDS011;6622;49.752;6.100;2022-10-31T08:03:28;4.13;;;2.70;;
13112;SDS011;6622;49.752;6.100;2022-10-31T08:05:56;4.33;;;2.87;;
13112;SDS011;6622;49.752;6.100;2022-10-31T08:08:21;5.07;;;3.10;;
13112;SDS011;6622;49.752;6.100;2022-10-31T08:10:48;6.97;;;3.53;;
13112;SDS011;6622;49.752;6.100;2022-10-31T08:13:15;7.13;;;3.40;;
13112;SDS011;6622;49.752;6.100;2022-10-31T08:15:41;4.57;;;3.03;;
13112;SDS011;6622;49.752;6.100;2022-10-31T08:18:11;5.73;;;3.30;;
13112;SDS011;6622;49.752;6.100;2022-10-31T08:20:37;6.23;;;3.00;;
13112;SDS011;6622;49.752;6.100;2022-10-31T08:23:04;5.90;;;3.50;;
13112;SDS011;6622;49.752;6.100;2022-10-31T08:25:31;5.33;;;3.13;;
13112;SDS011;6622;49.752;6.100;2022-10-31T08:27:57;4.80;;;3.10;;
13112;SDS011;6622;49.752;6.100;2022-10-31T08:30:25;6.10;;;2.77;;
13112;SDS011;6622;49.752;6.100;2022-10-31T08:32:59;7.07;;;3.43;;
13112;SDS011;6622;49.752;6.100;2022-10-31T08:35:26;6.17;;;3.83;;
13112;SDS011;6622;49.752;6.100;2022-10-31T08:37:53;5.27;;;3.13;;
13112;SDS011;6622;49.752;6.100;2022-10-31T08:40:19;8.05;;;4.07;;
13112;SDS011;6622;49.752;6.100;2022-10-31T08:42:46;9.43;;;4.20;;
13112;SDS011;6622;49.752;6.100;2022-10-31T08:45:12;5.83;;;3.10;;
13112;SDS011;6622;49.752;6.100;2022-10-31T08:47:40;11.17;;;3.17;;
13112;SDS011;6622;49.752;6.100;2022-10-31T08:50:06;3.57;;;2.70;;
13112;SDS011;6622;49.752;6.100;2022-10-31T08:52:33;5.90;;;2.83;;
13112;SDS011;6622;49.752;6.100;2022-10-31T08:55:00;6.03;;;3.70;;
13112;SDS011;6622;49.752;6.100;2022-10-31T08:57:26;3.97;;;3.10;;
13112;SDS011;6622;49.752;6.100;2022-10-31T08:59:53;6.10;;;3.50;;
13112;SDS011;6622;49.752;6.100;2022-10-31T09:02:20;3.50;;;2.53;;
13112;SDS011;6622;49.752;6.100;2022-10-31T09:04:46;5.07;;;3.47;;
13112;SDS011;6622;49.752;6.100;2022-10-31T09:07:13;5.00;;;3.20;;
13112;SDS011;6622;49.752;6.100;2022-10-31T09:09:40;8.57;;;3.60;;
13112;SDS011;6622;49.752;6.100;2022-10-31T09:12:07;9.97;;;3.87;;
13112;SDS011;6622;49.752;6.100;2022-10-31T09:14:33;6.83;;;3.40;;
13112;SDS011;6622;49.752;6.100;2022-10-31T09:17:01;5.13;;;3.47;;
13112;SDS011;6622;49.752;6.100;2022-10-31T09:19:27;5.97;;;3.30;;
13112;SDS011;6622;49.752;6.100;2022-10-31T09:21:54;6.43;;;4.12;;
13112;SDS011;6622;49.752;6.100;2022-10-31T09:24:21;10.30;;;3.63;;
13112;SDS011;6622;49.752;6.100;2022-10-31T09:26:48;3.93;;;2.80;;
13112;SDS011;6622;49.752;6.100;2022-10-31T09:29:15;8.17;;;3.50;;
13112;SDS011;6622;49.752;6.100;2022-10-31T09:31:41;12.73;;;3.37;;
13112;SDS011;6622;49.752;6.100;2022-10-31T09:34:08;7.80;;;3.67;;
13112;SDS011;6622;49.752;6.100;2022-10-31T09:36:36;8.10;;;3.90;;
13112;SDS011;6622;49.752;6.100;2022-10-31T09:39:05;6.00;;;3.30;;
13112;SDS011;6622;49.752;6.100;2022-10-31T09:44:30;8.23;;;3.60;;
13112;SDS011;6622;49.752;6.100;2022-10-31T09:46:59;6.97;;;3.83;;
13112;SDS011;6622;49.752;6.100;2022-10-31T09:49:33;10.90;;;5.30;;
13112;SDS011;6622;49.752;6.100;2022-10-31T09:52:08;12.67;;;6.00;;
13112;SDS011;6622;49.752;6.100;2022-10-31T09:54:38;11.33;;;5.97;;
13112;SDS011;6622;49.752;6.100;2022-10-31T09:57:13;10.07;;;5.70;;
13112;SDS011;6622;49.752;6.100;2022-10-31T09:59:40;9.03;;;4.23;;
13112;SDS011;6622;49.752;6.100;2022-10-31T10:02:10;5.87;;;3.53;;
13112;SDS011;6622;49.752;6.100;2022-10-31T10:09:54;6.13;;;3.53;;
13112;SDS011;6622;49.752;6.100;2022-10-31T10:15:28;6.53;;;3.20;;
13112;SDS011;6622;49.752;6.100;2022-10-31T10:17:58;8.07;;;3.23;;
13112;SDS011;6622;49.752;6.100;2022-10-31T10:25:33;6.93;;;3.40;;
13112;SDS011;6622;49.752;6.100;2022-10-31T10:28:20;5.37;;;3.27;;
13112;SDS011;6622;49.752;6.100;2022-10-31T10:30:47;9.17;;;3.60;;
13112;SDS011;6622;49.752;6.100;2022-10-31T10:33:28;4.57;;;3.07;;
13112;SDS011;6622;49.752;6.100;2022-10-31T10:36:18;5.57;;;3.57;;
13112;SDS011;6622;49.752;6.100;2022-10-31T10:38:35;4.60;;;3.10;;
13112;SDS011;6622;49.752;6.100;2022-10-31T10:41:01;8.43;;;3.30;;
13112;SDS011;6622;49.752;6.100;2022-10-31T10:43:34;5.13;;;3.77;;
13112;SDS011;6622;49.752;6.100;2022-10-31T10:46:19;7.43;;;3.20;;
13112;SDS011;6622;49.752;6.100;2022-10-31T10:51:44;4.53;;;3.37;;
13112;SDS011;6622;49.752;6.100;2022-10-31T10:54:38;8.13;;;3.78;;
13112;SDS011;6622;49.752;6.100;2022-10-31T10:59:41;5.53;;;3.40;;
13112;SDS011;6622;49.752;6.100;2022-10-31T11:02:24;6.40;;;3.17;;
13112;SDS011;6622;49.752;6.100;2022-10-31T11:04:51;7.13;;;3.30;;
13112;SDS011;6622;49.752;6.100;2022-10-31T11:07:16;7.90;;;3.80;;
13112;SDS011;6622;49.752;6.100;2022-10-31T11:09:43;5.30;;;3.63;;
13112;SDS011;6622;49.752;6.100;2022-10-31T11:12:10;6.03;;;3.10;;
13112;SDS011;6622;49.752;6.100;2022-10-31T11:14:46;6.20;;;3.40;;
13112;SDS011;6622;49.752;6.100;2022-10-31T11:17:10;4.63;;;3.10;;
13112;SDS011;6622;49.752;6.100;2022-10-31T11:19:36;8.23;;;3.50;;
13112;SDS011;6622;49.752;6.100;2022-10-31T11:22:14;5.57;;;3.30;;
13112;SDS011;6622;49.752;6.100;2022-10-31T11:24:41;9.50;;;3.60;;
13112;SDS011;6622;49.752;6.100;2022-10-31T11:27:15;5.00;;;3.30;;
13112;SDS011;6622;49.752;6.100;2022-10-31T11:29:40;11.17;;;3.87;;
13112;SDS011;6622;49.752;6.100;2022-10-31T11:32:08;9.23;;;4.07;;
13112;SDS011;6622;49.752;6.100;2022-10-31T11:34:37;9.93;;;3.90;;
13112;SDS011;6622;49.752;6.100;2022-10-31T11:37:12;9.73;;;3.93;;
13112;SDS011;6622;49.752;6.100;2022-10-31T11:39:43;7.50;;;4.40;;
13112;SDS011;6622;49.752;6.100;2022-10-31T11:42:06;8.67;;;4.17;;
13112;SDS011;6622;49.752;6.100;2022-10-31T11:44:32;8.13;;;3.37;;
13112;SDS011;6622;49.752;6.100;2022-10-31T11:47:03;7.67;;;4.03;;
13112;SDS011;6622;49.752;6.100;2022-10-31T11:49:33;9.63;;;3.37;;
13112;SDS011;6622;49.752;6.100;2022-10-31T11:52:05;8.80;;;4.23;;
13112;SDS011;6622;49.752;6.100;2022-10-31T11:54:28;12.43;;;4.47;;
13112;SDS011;6622;49.752;6.100;2022-10-31T11:56:54;8.30;;;3.97;;
13112;SDS011;6622;49.752;6.100;2022-10-31T11:59:28;7.03;;;3.73;;
13112;SDS011;6622;49.752;6.100;2022-10-31T12:01:51;8.50;;;3.80;;
13112;SDS011;6622;49.752;6.100;2022-10-31T12:04:18;7.17;;;3.47;;
13112;SDS011;6622;49.752;6.100;2022-10-31T12:06:45;9.53;;;3.53;;
13112;SDS011;6622;49.752;6.100;2022-10-31T12:09:24;6.20;;;3.50;;
13112;SDS011;6622;49.752;6.100;2022-10-31T12:17:19;7.43;;;3.57;;
13112;SDS011;6622;49.752;6.100;2022-10-31T12:19:57;6.33;;;2.97;;
13112;SDS011;6622;49.752;6.100;2022-10-31T12:22:42;7.40;;;3.90;;
13112;SDS011;6622;49.752;6.100;2022-10-31T12:28:15;8.40;;;4.30;;
13112;SDS011;6622;49.752;6.100;2022-10-31T12:33:39;7.37;;;4.15;;
13112;SDS011;6622;49.752;6.100;2022-10-31T12:36:13;12.10;;;4.40;;
13112;SDS011;6622;49.752;6.100;2022-10-31T12:41:40;8.27;;;3.70;;
13112;SDS011;6622;49.752;6.100;2022-10-31T12:44:11;4.60;;;3.00;;
13112;SDS011;6622;49.752;6.100;2022-10-31T12:46:45;6.70;;;3.57;;
13112;SDS011;6622;49.752;6.100;2022-10-31T12:52:02;5.10;;;3.33;;
13112;SDS011;6622;49.752;6.100;2022-10-31T12:54:35;12.03;;;3.10;;
13112;SDS011;6622;49.752;6.100;2022-10-31T12:57:07;5.37;;;2.67;;
13112;SDS011;6622;49.752;6.100;2022-10-31T12:59:43;5.63;;;2.60;;
13112;SDS011;6622;49.752;6.100;2022-10-31T13:02:12;5.80;;;3.17;;
13112;SDS011;6622;49.752;6.100;2022-10-31T13:04:57;6.13;;;2.83;;
13112;SDS011;6622;49.752;6.100;2022-10-31T13:07:39;3.77;;;3.03;;
13112;SDS011;6622;49.752;6.100;2022-10-31T13:12:44;6.47;;;2.50;;
13112;SDS011;6622;49.752;6.100;2022-10-31T13:17:44;4.27;;;2.80;;
13112;SDS011;6622;49.752;6.100;2022-10-31T13:22:42;7.63;;;2.73;;
13112;SDS011;6622;49.752;6.100;2022-10-31T13:27:42;4.37;;;1.87;;
13112;SDS011;6622;49.752;6.100;2022-10-31T13:30:15;5.60;;;2.30;;
13112;SDS011;6622;49.752;6.100;2022-10-31T13:32:46;5.57;;;2.42;;
13112;SDS011;6622;49.752;6.100;2022-10-31T13:35:14;9.95;;;2.42;;
13112;SDS011;6622;49.752;6.100;2022-10-31T13:40:32;6.47;;;2.40;;
13112;SDS011;6622;49.752;6.100;2022-10-31T13:45:19;5.30;;;2.30;;
13112;SDS011;6622;49.752;6.100;2022-10-31T13:47:55;7.10;;;2.57;;
13112;SDS011;6622;49.752;6.100;2022-10-31T13:50:22;2.97;;;2.10;;
13112;SDS011;6622;49.752;6.100;2022-10-31T13:52:47;8.50;;;2.57;;
13112;SDS011;6622;49.752;6.100;2022-10-31T13:58:19;6.40;;;2.80;;
13112;SDS011;6622;49.752;6.100;2022-10-31T14:01:00;4.35;;;2.05;;
13112;SDS011;6622;49.752;6.100;2022-10-31T14:03:26;3.13;;;2.00;;
13112;SDS011;6622;49.752;6.100;2022-10-31T14:05:52;3.63;;;1.87;;
13112;SDS011;6622;49.752;6.100;2022-10-31T14:08:20;7.03;;;2.70;;
13112;SDS011;6622;49.752;6.100;2022-10-31T14:10:49;3.80;;;2.03;;
13112;SDS011;6622;49.752;6.100;2022-10-31T14:16:02;5.03;;;2.30;;
13112;SDS011;6622;49.752;6.100;2022-10-31T14:18:32;5.78;;;2.40;;
13112;SDS011;6622;49.752;6.100;2022-10-31T14:21:00;12.50;;;3.50;;
13112;SDS011;6622;49.752;6.100;2022-10-31T14:26:06;6.67;;;2.43;;
13112;SDS011;6622;49.752;6.100;2022-10-31T14:28:41;5.03;;;1.97;;
13112;SDS011;6622;49.752;6.100;2022-10-31T14:31:25;7.65;;;2.37;;
13112;SDS011;6622;49.752;6.100;2022-10-31T14:33:37;8.20;;;2.50;;
13112;SDS011;6622;49.752;6.100;2022-10-31T14:36:10;5.10;;;2.10;;
13112;SDS011;6622;49.752;6.100;2022-10-31T14:52:12;4.37;;;1.97;;
13112;SDS011;6622;49.752;6.100;2022-10-31T14:54:38;8.00;;;2.57;;
13112;SDS011;6622;49.752;6.100;2022-10-31T14:57:05;5.77;;;1.90;;
13112;SDS011;6622;49.752;6.100;2022-10-31T14:59:35;2.83;;;1.67;;
13112;SDS011;6622;49.752;6.100;2022-10-31T15:02:07;3.47;;;1.90;;
13112;SDS011;6622;49.752;6.100;2022-10-31T15:04:27;6.30;;;1.95;;
13112;SDS011;6622;49.752;6.100;2022-10-31T15:07:02;6.47;;;2.10;;
13112;SDS011;6622;49.752;6.100;2022-10-31T15:09:38;3.20;;;1.60;;
13112;SDS011;6622;49.752;6.100;2022-10-31T15:12:21;2.60;;;1.60;;
13112;SDS011;6622;49.752;6.100;2022-10-31T15:14:49;7.10;;;1.80;;
13112;SDS011;6622;49.752;6.100;2022-10-31T15:17:15;8.00;;;1.90;;
13112;SDS011;6622;49.752;6.100;2022-10-31T15:19:42;3.03;;;1.97;;
13112;SDS011;6622;49.752;6.100;2022-10-31T15:22:10;2.90;;;2.00;;
13112;SDS011;6622;49.752;6.100;2022-10-31T15:24:37;5.90;;;1.90;;
13112;SDS011;6622;49.752;6.100;2022-10-31T15:27:03;5.97;;;2.50;;
13112;SDS011;6622;49.752;6.100;2022-10-31T15:29:30;6.23;;;1.80;;
13112;SDS011;6622;49.752;6.100;2022-10-31T15:31:57;4.07;;;2.30;;
13112;SDS011;6622;49.752;6.100;2022-10-31T15:34:40;3.87;;;1.70;;
13112;SDS011;6622;49.752;6.100;2022-10-31T15:37:09;5.13;;;2.00;;
13112;SDS011;6622;49.752;6.100;2022-10-31T15:39:35;5.97;;;2.30;;
13112;SDS011;6622;49.752;6.100;2022-10-31T15:42:02;5.77;;;2.10;;
13112;SDS011;6622;49.752;6.100;2022-10-31T15:44:29;4.90;;;2.43;;
13112;SDS011;6622;49.752;6.100;2022-10-31T15:47:05;5.05;;;2.45;;
13112;SDS011;6622;49.752;6.100;2022-10-31T15:49:35;4.93;;;2.50;;
13112;SDS011;6622;49.752;6.100;2022-10-31T15:52:09;4.40;;;2.00;;
13112;SDS011;6622;49.752;6.100;2022-10-31T15:54:32;10.63;;;2.17;;
13112;SDS011;6622;49.752;6.100;2022-10-31T15:56:59;4.90;;;2.40;;
13112;SDS011;6622;49.752;6.100;2022-10-31T15:59:26;3.40;;;2.00;;
13112;SDS011;6622;49.752;6.100;2022-10-31T16:02:02;3.03;;;2.00;;
13112;SDS011;6622;49.752;6.100;2022-10-31T16:04:28;6.43;;;2.10;;
13112;SDS011;6622;49.752;6.100;2022-10-31T16:06:59;8.73;;;2.13;;
13112;SDS011;6622;49.752;6.100;2022-10-31T16:09:25;7.20;;;2.20;;
13112;SDS011;6622;49.752;6.100;2022-10-31T16:11:52;10.90;;;2.30;;
13112;SDS011;6622;49.752;6.100;2022-10-31T16:14:20;7.97;;;2.03;;
13112;SDS011;6622;49.752;6.100;2022-10-31T16:16:46;4.63;;;2.47;;
13112;SDS011;6622;49.752;6.100;2022-10-31T16:19:25;6.20;;;2.93;;
13112;SDS011;6622;49.752;6.100;2022-10-31T16:21:52;6.13;;;2.30;;
13112;SDS011;6622;49.752;6.100;2022-10-31T16:24:28;10.67;;;2.80;;
13112;SDS011;6622;49.752;6.100;2022-10-31T16:26:59;4.70;;;2.43;;
13112;SDS011;6622;49.752;6.100;2022-10-31T16:29:33;4.43;;;2.27;;
13112;SDS011;6622;49.752;6.100;2022-10-31T16:32:04;6.15;;;3.08;;
13112;SDS011;6622;49.752;6.100;2022-10-31T16:34:31;5.07;;;3.23;;
13112;SDS011;6622;49.752;6.100;2022-10-31T16:36:58;9.27;;;3.50;;
13112;SDS011;6622;49.752;6.100;2022-10-31T16:39:24;10.33;;;4.93;;
13112;SDS011;6622;49.752;6.100;2022-10-31T16:41:51;7.07;;;3.57;;
13112;SDS011;6622;49.752;6.100;2022-10-31T16:44:24;8.60;;;2.30;;
13112;SDS011;6622;49.752;6.100;2022-10-31T16:47:06;4.03;;;2.67;;
13112;SDS011;6622;49.752;6.100;2022-10-31T16:49:35;5.27;;;3.40;;
13112;SDS011;6622;49.752;6.100;2022-10-31T16:52:01;6.40;;;4.07;;
13112;SDS011;6622;49.752;6.100;2022-10-31T16:54:28;5.80;;;2.73;;
13112;SDS011;6622;49.752;6.100;2022-10-31T16:56:54;6.50;;;2.37;;
13112;SDS011;6622;49.752;6.100;2022-10-31T16:59:21;8.43;;;2.80;;
13112;SDS011;6622;49.752;6.100;2022-10-31T17:01:48;5.50;;;2.57;;
13112;SDS011;6622;49.752;6.100;2022-10-31T17:04:15;3.80;;;2.10;;
13112;SDS011;6622;49.752;6.100;2022-10-31T17:06:42;6.57;;;3.73;;
13112;SDS011;6622;49.752;6.100;2022-10-31T17:09:08;7.27;;;3.53;;
13112;SDS011;6622;49.752;6.100;2022-10-31T17:11:36;7.27;;;4.40;;
13112;SDS011;6622;49.752;6.100;2022-10-31T17:14:03;5.50;;;3.10;;
13112;SDS011;6622;49.752;6.100;2022-10-31T17:16:29;6.57;;;4.50;;
13112;SDS011;6622;49.752;6.100;2022-10-31T17:18:56;8.03;;;3.73;;
13112;SDS011;6622;49.752;6.100;2022-10-31T17:21:22;7.90;;;3.60;;
13112;SDS011;6622;49.752;6.100;2022-10-31T17:23:49;7.73;;;4.47;;
13112;SDS011;6622;49.752;6.100;2022-10-31T17:26:16;15.17;;;5.00;;
13112;SDS011;6622;49.752;6.100;2022-10-31T17:28:42;6.10;;;4.30;;
13112;SDS011;6622;49.752;6.100;2022-10-31T17:31:12;8.67;;;3.70;;
13112;SDS011;6622;49.752;6.100;2022-10-31T17:33:38;5.37;;;2.30;;
13112;SDS011;6622;49.752;6.100;2022-10-31T17:36:04;7.00;;;2.80;;
13112;SDS011;6622;49.752;6.100;2022-10-31T17:38:31;4.03;;;2.30;;
13112;SDS011;6622;49.752;6.100;2022-10-31T17:41:01;6.30;;;2.70;;
13112;SDS011;6622;49.752;6.100;2022-10-31T17:43:25;4.40;;;2.77;;
13112;SDS011;6622;49.752;6.100;2022-10-31T17:45:52;12.33;;;2.30;;
13112;SDS011;6622;49.752;6.100;2022-10-31T17:48:18;5.70;;;2.83;;
13112;SDS011;6622;49.752;6.100;2022-10-31T17:50:46;8.13;;;3.07;;
13112;SDS011;6622;49.752;6.100;2022-10-31T17:53:12;6.00;;;2.73;;
13112;SDS011;6622;49.752;6.100;2022-10-31T17:55:39;4.63;;;2.63;;
13112;SDS011;6622;49.752;6.100;2022-10-31T17:58:06;7.67;;;2.90;;
13112;SDS011;6622;49.752;6.100;2022-10-31T18:00:32;4.53;;;3.00;;
13112;SDS011;6622;49.752;6.100;2022-10-31T18:03:00;6.72;;;3.30;;
13112;SDS011;6622;49.752;6.100;2022-10-31T18:05:26;9.40;;;3.07;;
13112;SDS011;6622;49.752;6.100;2022-10-31T18:07:52;5.53;;;3.05;;
13112;SDS011;6622;49.752;6.100;2022-10-31T18:10:19;5.33;;;3.27;;
13112;SDS011;6622;49.752;6.100;2022-10-31T18:12:45;10.70;;;3.00;;
13112;SDS011;6622;49.752;6.100;2022-10-31T18:15:12;5.20;;;3.07;;
13112;SDS011;6622;49.752;6.100;2022-10-31T18:17:39;3.90;;;3.00;;
13112;SDS011;6622;49.752;6.100;2022-10-31T18:20:06;8.03;;;3.17;;
13112;SDS011;6622;49.752;6.100;2022-10-31T18:22:33;4.80;;;2.83;;
13112;SDS011;6622;49.752;6.100;2022-10-31T18:24:59;7.27;;;3.30;;
13112;SDS011;6622;49.752;6.100;2022-10-31T18:27:26;12.10;;;7.68;;
13112;SDS011;6622;49.752;6.100;2022-10-31T18:29:53;8.97;;;5.73;;
13112;SDS011;6622;49.752;6.100;2022-10-31T18:32:19;11.27;;;6.40;;
13112;SDS011;6622;49.752;6.100;2022-10-31T18:34:46;10.20;;;5.23;;
13112;SDS011;6622;49.752;6.100;2022-10-31T18:37:12;11.60;;;5.33;;
13112;SDS011;6622;49.752;6.100;2022-10-31T18:39:39;10.83;;;4.70;;
13112;SDS011;6622;49.752;6.100;2022-10-31T18:42:06;7.67;;;4.37;;
13112;SDS011;6622;49.752;6.100;2022-10-31T18:44:32;8.73;;;3.37;;
13112;SDS011;6622;49.752;6.100;2022-10-31T18:46:59;8.52;;;5.15;;
13112;SDS011;6622;49.752;6.100;2022-10-31T18:49:26;7.57;;;4.17;;
13112;SDS011;6622;49.752;6.100;2022-10-31T18:51:52;7.80;;;4.60;;
13112;SDS011;6622;49.752;6.100;2022-10-31T18:54:19;7.53;;;4.47;;
13112;SDS011;6622;49.752;6.100;2022-10-31T18:56:45;5.03;;;3.43;;
13112;SDS011;6622;49.752;6.100;2022-10-31T18:59:13;6.00;;;3.00;;
13112;SDS011;6622;49.752;6.100;2022-10-31T19:01:40;5.57;;;2.50;;
13112;SDS011;6622;49.752;6.100;2022-10-31T19:04:06;8.43;;;3.87;;
13112;SDS011;6622;49.752;6.100;2022-10-31T19:06:33;5.10;;;3.07;;
13112;SDS011;6622;49.752;6.100;2022-10-31T19:09:01;8.33;;;3.00;;
13112;SDS011;6622;49.752;6.100;2022-10-31T19:11:27;4.30;;;3.17;;
13112;SDS011;6622;49.752;6.100;2022-10-31T19:13:55;7.23;;;3.83;;
13112;SDS011;6622;49.752;6.100;2022-10-31T19:16:20;9.27;;;3.27;;
13112;SDS011;6622;49.752;6.100;2022-10-31T19:18:47;3.33;;;2.30;;
13112;SDS011;6622;49.752;6.100;2022-10-31T19:21:14;8.70;;;3.70;;
13112;SDS011;6622;49.752;6.100;2022-10-31T19:23:40;7.95;;;4.12;;
13112;SDS011;6622;49.752;6.100;2022-10-31T19:26:07;7.83;;;4.07;;
13112;SDS011;6622;49.752;6.100;2022-10-31T19:28:33;5.57;;;3.45;;
13112;SDS011;6622;49.752;6.100;2022-10-31T19:31:00;6.27;;;3.27;;
13112;SDS011;6622;49.752;6.100;2022-10-31T19:33:26;6.67;;;3.20;;
13112;SDS011;6622;49.752;6.100;2022-10-31T19:35:59;6.50;;;3.70;;